createdAt,value
2022-12-20T00:01:34.246Z,20.10
2022-12-20T00:03:36.341Z,20.10
2022-12-20T00:05:38.573Z,20.10
2022-12-20T00:07:40.161Z,20.10
2022-12-20T00:09:41.774Z,20.10
2022-12-20T00:11:43.312Z,20.10
2022-12-20T00:13:46.241Z,20.10
2022-12-20T00:15:47.800Z,20.10
2022-12-20T00:17:49.401Z,20.10
2022-12-20T00:19:50.960Z,20.10
2022-12-20T00:21:52.524Z,20.10
2022-12-20T00:23:54.178Z,20.10
2022-12-20T00:26:06.177Z,20.00
2022-12-20T00:28:07.709Z,20.00
2022-12-20T00:30:09.426Z,20.10
2022-12-20T00:32:11.104Z,20.00
2022-12-20T00:34:12.748Z,20.00
2022-12-20T00:36:14.464Z,20.00
2022-12-20T00:38:16.023Z,20.00
2022-12-20T00:40:17.619Z,20.00
2022-12-20T00:42:19.244Z,20.00
2022-12-20T00:44:20.844Z,20.00
2022-12-20T00:46:23.553Z,20.00
2022-12-20T00:48:25.676Z,20.00
2022-12-20T00:50:27.220Z,19.90
2022-12-20T00:52:28.803Z,19.90
2022-12-20T00:54:30.384Z,19.90
2022-12-20T00:56:32.154Z,19.90
2022-12-20T00:58:34.429Z,19.90
2022-12-20T01:00:36.557Z,19.90
2022-12-20T01:02:38.357Z,19.90
2022-12-20T01:04:40.112Z,19.90
2022-12-20T01:06:41.767Z,19.90
2022-12-20T01:08:43.864Z,19.90
2022-12-20T01:10:45.460Z,19.90
2022-12-20T01:12:46.985Z,19.90
2022-12-20T01:14:48.800Z,19.90
2022-12-20T01:16:50.469Z,19.80
2022-12-20T01:18:52.865Z,19.80
2022-12-20T01:21:00.953Z,19.80
2022-12-20T01:23:02.534Z,19.80
2022-12-20T01:25:04.300Z,19.90
2022-12-20T01:27:06.230Z,19.90
2022-12-20T01:29:07.941Z,19.90
2022-12-20T01:31:10.657Z,19.80
2022-12-20T01:33:12.253Z,19.80
2022-12-20T01:35:13.809Z,19.80
2022-12-20T01:37:15.360Z,19.80
2022-12-20T01:39:16.881Z,19.80
2022-12-20T01:41:20.150Z,19.80
2022-12-20T01:43:22.014Z,19.80
2022-12-20T01:45:27.425Z,19.80
2022-12-20T01:47:32.077Z,19.80
2022-12-20T01:49:39.990Z,19.80
2022-12-20T01:51:49.066Z,19.80
2022-12-20T01:53:52.551Z,19.80
2022-12-20T01:55:54.730Z,19.80
2022-12-20T01:57:58.463Z,19.80
2022-12-20T01:59:59.987Z,19.80
2022-12-20T02:02:03.348Z,19.80
2022-12-20T02:04:05.305Z,19.70
2022-12-20T02:06:20.101Z,19.80
2022-12-20T02:08:21.667Z,19.70
2022-12-20T02:10:24.295Z,19.70
2022-12-20T02:12:26.977Z,19.70
2022-12-20T02:14:55.014Z,19.80
2022-12-20T02:17:08.012Z,19.70
2022-12-20T02:19:35.933Z,19.70
2022-12-20T02:21:48.016Z,19.70
2022-12-20T02:24:01.601Z,19.70
2022-12-20T02:26:18.344Z,19.70
2022-12-20T02:28:43.544Z,19.70
2022-12-20T02:30:46.047Z,19.70
2022-12-20T02:32:53.746Z,19.70
2022-12-20T02:34:55.483Z,19.70
2022-12-20T02:36:57.223Z,19.70
2022-12-20T02:38:58.856Z,19.70
2022-12-20T02:41:12.612Z,19.70
2022-12-20T02:43:40.603Z,19.70
2022-12-20T02:45:42.217Z,19.70
2022-12-20T02:47:46.892Z,19.70
2022-12-20T02:49:49.087Z,19.70
2022-12-20T02:51:52.028Z,19.70
2022-12-20T02:53:53.632Z,19.70
2022-12-20T02:56:09.838Z,19.70
2022-12-20T02:58:31.959Z,19.70
2022-12-20T03:00:38.451Z,19.60
2022-12-20T03:02:59.244Z,19.60
2022-12-20T03:05:01.653Z,19.70
2022-12-20T03:07:03.136Z,19.70
2022-12-20T03:09:04.666Z,19.60
2022-12-20T03:11:06.227Z,19.70
2022-12-20T03:13:07.757Z,19.60
2022-12-20T03:15:09.822Z,19.70
2022-12-20T03:17:12.184Z,19.70
2022-12-20T03:19:13.769Z,19.60
2022-12-20T03:21:15.419Z,19.70
2022-12-20T03:23:17.002Z,19.60
2022-12-20T03:25:19.397Z,19.60
2022-12-20T03:27:20.932Z,19.60
2022-12-20T03:29:22.746Z,19.60
2022-12-20T03:31:24.401Z,19.60
2022-12-20T03:33:26.003Z,19.60
2022-12-20T03:35:27.507Z,19.60
2022-12-20T03:37:29.590Z,19.60
2022-12-20T03:39:31.219Z,19.60
2022-12-20T03:41:32.825Z,19.60
2022-12-20T03:43:34.416Z,19.60
2022-12-20T03:45:35.952Z,19.60
2022-12-20T03:47:37.518Z,19.60
2022-12-20T03:49:39.092Z,19.60
2022-12-20T03:51:40.628Z,19.70
2022-12-20T03:53:42.182Z,19.60
2022-12-20T03:55:45.739Z,19.60
2022-12-20T03:57:47.787Z,19.60
2022-12-20T03:59:49.410Z,19.60
2022-12-20T04:01:51.010Z,19.60
2022-12-20T04:03:53.132Z,19.60
2022-12-20T04:05:54.662Z,19.70
2022-12-20T04:07:56.376Z,19.60
2022-12-20T04:09:57.945Z,19.60
2022-12-20T04:11:59.591Z,19.70
2022-12-20T04:14:01.163Z,19.70
2022-12-20T04:16:02.907Z,19.70
2022-12-20T04:18:04.520Z,19.70
2022-12-20T04:20:18.740Z,19.70
2022-12-20T04:22:20.597Z,19.70
2022-12-20T04:24:22.140Z,19.70
2022-12-20T04:26:24.190Z,19.70
2022-12-20T04:28:25.761Z,19.70
2022-12-20T04:30:27.266Z,19.70
2022-12-20T04:32:28.814Z,19.70
2022-12-20T04:34:30.403Z,19.70
2022-12-20T04:36:32.043Z,19.80
2022-12-20T04:38:33.629Z,19.80
2022-12-20T04:40:35.173Z,19.80
2022-12-20T04:42:36.704Z,19.80
2022-12-20T04:44:38.232Z,19.90
2022-12-20T04:46:39.896Z,19.90
2022-12-20T04:48:58.869Z,20.00
2022-12-20T04:51:01.218Z,20.00
2022-12-20T04:53:21.540Z,20.00
2022-12-20T04:55:23.082Z,20.10
2022-12-20T04:57:24.654Z,20.10
2022-12-20T04:59:26.235Z,20.10
2022-12-20T05:01:27.954Z,20.20
2022-12-20T05:03:29.697Z,20.20
2022-12-20T05:05:31.477Z,20.20
2022-12-20T05:07:33.023Z,20.20
2022-12-20T05:09:34.543Z,20.30
2022-12-20T05:11:36.139Z,20.30
2022-12-20T05:13:37.760Z,20.30
2022-12-20T05:15:39.517Z,20.30
2022-12-20T05:17:41.099Z,20.40
2022-12-20T05:19:42.640Z,20.30
2022-12-20T05:22:02.711Z,20.40
2022-12-20T05:24:22.649Z,20.40
2022-12-20T05:26:24.572Z,20.40
2022-12-20T05:28:27.360Z,20.40
2022-12-20T05:30:28.860Z,20.40
2022-12-20T05:32:30.451Z,20.40
2022-12-20T05:34:32.004Z,20.40
2022-12-20T05:36:33.520Z,20.40
2022-12-20T05:38:35.075Z,20.40
2022-12-20T05:40:36.728Z,20.40
2022-12-20T05:42:38.377Z,20.40
2022-12-20T05:44:39.888Z,20.40
2022-12-20T05:46:41.637Z,20.40
2022-12-20T05:48:43.260Z,20.40
2022-12-20T05:50:45.804Z,20.40
2022-12-20T05:52:47.389Z,20.40
2022-12-20T05:54:48.954Z,20.40
2022-12-20T05:56:50.624Z,20.50
2022-12-20T05:58:52.141Z,20.40
2022-12-20T06:00:53.752Z,20.40
2022-12-20T06:02:55.761Z,20.50
2022-12-20T06:04:58.982Z,20.40
2022-12-20T06:07:00.542Z,20.40
2022-12-20T06:09:02.163Z,20.50
2022-12-20T06:11:05.086Z,20.40
2022-12-20T06:13:06.820Z,20.50
2022-12-20T06:15:09.223Z,20.40
2022-12-20T06:17:11.964Z,20.50
2022-12-20T06:19:20.888Z,20.50
2022-12-20T06:21:23.225Z,20.50
2022-12-20T06:23:24.816Z,20.50
2022-12-20T06:25:26.429Z,20.50
2022-12-20T06:27:28.018Z,20.50
2022-12-20T06:29:30.087Z,20.50
2022-12-20T06:31:31.715Z,20.50
2022-12-20T06:33:33.303Z,20.50
2022-12-20T06:35:34.871Z,20.50
2022-12-20T06:37:36.666Z,20.50
2022-12-20T06:39:38.268Z,20.50
2022-12-20T06:41:40.256Z,20.50
2022-12-20T06:43:41.807Z,20.50
2022-12-20T06:45:43.467Z,20.50
2022-12-20T06:47:45.085Z,20.50
2022-12-20T06:49:46.640Z,20.50
2022-12-20T06:51:48.247Z,20.50
2022-12-20T06:53:49.833Z,20.50
2022-12-20T06:55:51.480Z,20.50
2022-12-20T06:57:53.011Z,20.50
2022-12-20T06:59:54.876Z,20.50
2022-12-20T07:01:56.670Z,20.50
2022-12-20T07:03:58.486Z,20.50
2022-12-20T07:06:00.045Z,20.50
2022-12-20T07:08:04.205Z,20.50
2022-12-20T07:10:06.198Z,20.50
2022-12-20T07:12:08.154Z,20.50
2022-12-20T07:14:09.685Z,20.50
2022-12-20T07:16:11.278Z,20.40
2022-12-20T07:18:12.904Z,20.50
2022-12-20T07:20:15.035Z,20.50
2022-12-20T07:22:16.796Z,20.40
2022-12-20T07:24:18.390Z,20.40
2022-12-20T07:26:20.096Z,20.40
2022-12-20T07:28:21.919Z,20.40
2022-12-20T07:30:23.459Z,20.40
2022-12-20T07:32:25.142Z,20.40
2022-12-20T07:34:27.635Z,20.40
2022-12-20T07:36:29.305Z,20.40
2022-12-20T07:38:30.950Z,20.40
2022-12-20T07:40:32.493Z,20.40
2022-12-20T07:42:39.015Z,20.40
2022-12-20T07:44:42.012Z,20.40
2022-12-20T07:46:43.746Z,20.40
2022-12-20T07:48:45.397Z,20.40
2022-12-20T07:50:47.041Z,20.40
2022-12-20T07:52:49.523Z,20.40
2022-12-20T07:54:58.852Z,20.40
2022-12-20T07:57:03.041Z,20.40
2022-12-20T07:59:04.622Z,20.30
2022-12-20T08:01:07.453Z,20.40
2022-12-20T08:03:12.007Z,20.30
2022-12-20T08:05:14.093Z,20.40
2022-12-20T08:07:15.670Z,20.40
2022-12-20T08:09:17.236Z,20.30
2022-12-20T08:11:20.696Z,20.30
2022-12-20T08:13:22.304Z,20.30
2022-12-20T08:15:24.019Z,20.30
2022-12-20T08:17:25.779Z,20.30
2022-12-20T08:19:32.154Z,20.30
2022-12-20T08:21:34.257Z,20.30
2022-12-20T08:23:35.921Z,20.30
2022-12-20T08:25:41.574Z,20.30
2022-12-20T08:27:43.904Z,20.20
2022-12-20T08:29:46.543Z,20.20
2022-12-20T08:31:50.609Z,20.20
2022-12-20T08:33:53.920Z,20.20
2022-12-20T08:36:03.708Z,20.20
2022-12-20T08:38:05.341Z,20.20
2022-12-20T08:40:07.843Z,20.20
2022-12-20T08:42:09.608Z,20.20
2022-12-20T08:44:11.266Z,20.20
2022-12-20T08:46:12.913Z,20.20
2022-12-20T08:48:14.493Z,20.20
2022-12-20T08:50:16.154Z,20.20
2022-12-20T08:52:17.689Z,20.20
2022-12-20T08:54:19.367Z,20.20
2022-12-20T08:56:21.197Z,20.20
2022-12-20T08:58:22.770Z,20.20
2022-12-20T09:00:24.373Z,20.20
2022-12-20T09:02:26.146Z,20.10
2022-12-20T09:04:27.807Z,20.10
2022-12-20T09:06:29.438Z,20.10
2022-12-20T09:08:30.976Z,20.20
2022-12-20T09:10:32.543Z,20.10
2022-12-20T09:12:36.232Z,20.20
2022-12-20T09:14:37.756Z,20.10
2022-12-20T09:16:39.348Z,20.10
2022-12-20T09:18:41.350Z,20.10
2022-12-20T09:20:44.441Z,20.10
2022-12-20T09:22:45.991Z,20.10
2022-12-20T09:24:47.532Z,20.10
2022-12-20T09:26:50.477Z,20.10
2022-12-20T09:28:53.962Z,20.10
2022-12-20T09:30:59.520Z,20.10
2022-12-20T09:33:10.452Z,20.10
2022-12-20T09:35:15.477Z,20.10
2022-12-20T09:37:19.464Z,20.10
2022-12-20T09:39:21.013Z,20.10
2022-12-20T09:41:26.294Z,20.10
2022-12-20T09:43:28.289Z,20.10
2022-12-20T09:45:32.946Z,20.10
2022-12-20T09:47:35.903Z,20.10
2022-12-20T09:49:40.179Z,20.10
2022-12-20T09:51:56.716Z,20.10
2022-12-20T09:54:14.804Z,20.10
2022-12-20T09:56:37.063Z,20.10
2022-12-20T09:58:51.075Z,20.00
2022-12-20T10:00:54.619Z,20.00
2022-12-20T10:03:04.364Z,20.10
2022-12-20T10:05:38.926Z,20.00
2022-12-20T10:07:54.015Z,20.00
2022-12-20T10:10:14.529Z,20.00
2022-12-20T10:12:22.160Z,20.00
2022-12-20T10:14:34.773Z,20.00
2022-12-20T10:16:42.438Z,20.00
2022-12-20T10:18:54.978Z,20.00
2022-12-20T10:21:10.863Z,20.00
2022-12-20T10:23:29.322Z,20.00
2022-12-20T10:25:34.626Z,20.00
2022-12-20T10:27:40.110Z,20.00
2022-12-20T10:29:42.489Z,20.00
2022-12-20T10:31:44.160Z,20.00
2022-12-20T10:33:46.118Z,20.00
2022-12-20T10:35:48.506Z,20.00
2022-12-20T10:38:06.979Z,20.00
2022-12-20T10:40:39.425Z,20.00
2022-12-20T10:42:46.899Z,20.00
2022-12-20T10:44:48.692Z,20.00
2022-12-20T10:46:55.048Z,20.00
2022-12-20T10:48:56.629Z,19.90
2022-12-20T10:51:15.485Z,19.90
2022-12-20T10:53:20.890Z,20.00
2022-12-20T10:55:31.498Z,19.90
2022-12-20T10:57:33.508Z,19.90
2022-12-20T10:59:36.856Z,20.00
2022-12-20T11:01:43.732Z,20.00
2022-12-20T11:03:54.804Z,20.00
2022-12-20T11:06:02.306Z,19.90
2022-12-20T11:10:37.325Z,19.90
2022-12-20T11:12:52.140Z,19.90
2022-12-20T11:15:08.504Z,19.90
2022-12-20T11:17:33.012Z,19.90
2022-12-20T11:19:55.345Z,20.00
2022-12-20T11:22:05.947Z,19.90
2022-12-20T11:24:12.513Z,19.90
2022-12-20T11:26:25.314Z,19.90
2022-12-20T11:28:29.939Z,19.90
2022-12-20T11:30:43.476Z,19.90
2022-12-20T11:32:54.179Z,19.90
2022-12-20T11:34:55.755Z,19.90
2022-12-20T11:37:16.182Z,19.90
2022-12-20T11:39:36.661Z,19.90
2022-12-20T11:41:42.705Z,19.90
2022-12-20T11:44:23.418Z,19.90
2022-12-20T11:46:15.643Z,19.90
2022-12-20T11:48:20.340Z,19.90
2022-12-20T11:50:38.708Z,19.90
2022-12-20T11:52:43.275Z,19.90
2022-12-20T11:54:49.949Z,19.90
2022-12-20T11:56:53.043Z,19.90
2022-12-20T11:59:01.004Z,19.90
2022-12-20T12:01:28.776Z,19.90
2022-12-20T12:03:34.605Z,19.90
2022-12-20T12:05:47.595Z,19.90
2022-12-20T12:07:52.156Z,19.90
2022-12-20T12:10:02.433Z,19.90
2022-12-20T12:12:12.272Z,19.90
2022-12-20T12:14:16.849Z,19.90
2022-12-20T12:16:20.958Z,19.90
2022-12-20T12:18:28.874Z,19.90
2022-12-20T12:20:40.849Z,19.90
2022-12-20T12:22:43.127Z,19.90
2022-12-20T12:24:48.125Z,19.90
2022-12-20T12:26:49.832Z,19.90
2022-12-20T12:28:54.730Z,19.90
2022-12-20T12:31:26.064Z,19.90
2022-12-20T12:33:38.212Z,19.90
2022-12-20T12:35:55.653Z,19.90
2022-12-20T12:38:18.462Z,19.90
2022-12-20T12:40:33.621Z,19.90
2022-12-20T12:42:54.023Z,19.90
2022-12-20T12:44:58.075Z,19.90
2022-12-20T12:47:01.997Z,19.90
2022-12-20T12:49:09.673Z,19.90
2022-12-20T12:51:12.591Z,19.90
2022-12-20T12:53:19.530Z,19.90
2022-12-20T12:55:36.492Z,19.90
2022-12-20T12:57:54.692Z,19.90
2022-12-20T12:59:56.291Z,19.90
2022-12-20T13:02:04.359Z,19.90
2022-12-20T13:04:11.220Z,19.90
2022-12-20T13:06:33.773Z,19.90
2022-12-20T13:08:49.153Z,19.90
2022-12-20T13:10:50.653Z,19.90
2022-12-20T13:12:52.555Z,19.90
2022-12-20T13:14:54.210Z,19.90
2022-12-20T13:17:13.749Z,19.90
2022-12-20T13:19:26.840Z,19.90
2022-12-20T13:21:31.562Z,19.90
2022-12-20T13:23:33.238Z,19.90
2022-12-20T13:25:36.426Z,19.90
2022-12-20T13:27:40.670Z,19.90
2022-12-20T13:29:56.842Z,19.90
2022-12-20T13:31:58.385Z,19.90
2022-12-20T13:34:01.170Z,19.90
2022-12-20T13:36:04.679Z,19.90
2022-12-20T13:38:12.140Z,19.90
2022-12-20T13:40:26.033Z,19.90
2022-12-20T13:42:34.576Z,19.90
2022-12-20T13:44:40.181Z,19.90
2022-12-20T13:46:50.420Z,19.90
2022-12-20T13:49:03.566Z,19.90
2022-12-20T13:51:07.791Z,19.90
2022-12-20T13:53:16.964Z,19.90
2022-12-20T13:55:35.242Z,19.90
2022-12-20T13:57:41.801Z,19.90
2022-12-20T13:59:47.995Z,19.90
2022-12-20T14:01:50.464Z,19.90
2022-12-20T14:03:52.947Z,19.90
2022-12-20T14:06:02.066Z,19.90
2022-12-20T14:08:06.033Z,19.90
2022-12-20T14:10:19.135Z,19.80
2022-12-20T14:12:26.409Z,19.90
2022-12-20T14:14:36.344Z,19.90
2022-12-20T14:16:38.832Z,19.90
2022-12-20T14:18:40.732Z,19.90
2022-12-20T14:20:42.487Z,19.90
2022-12-20T14:23:02.469Z,19.90
2022-12-20T14:25:07.177Z,19.90
2022-12-20T14:27:12.749Z,19.80
2022-12-20T14:29:23.689Z,19.90
2022-12-20T14:31:34.389Z,19.80
2022-12-20T14:33:40.051Z,19.90
2022-12-20T14:35:47.161Z,19.90
2022-12-20T14:37:56.034Z,19.90
2022-12-20T14:40:03.215Z,19.90
2022-12-20T14:42:07.865Z,19.90
2022-12-20T14:44:12.518Z,19.90
2022-12-20T14:46:21.215Z,20.00
2022-12-20T14:48:22.884Z,20.00
2022-12-20T14:50:26.707Z,20.00
2022-12-20T14:52:36.099Z,20.00
2022-12-20T14:57:10.817Z,20.10
2022-12-20T14:59:16.442Z,20.10
2022-12-20T15:01:20.084Z,20.10
2022-12-20T15:03:23.124Z,20.10
2022-12-20T15:05:38.365Z,20.10
2022-12-20T15:07:41.662Z,20.10
2022-12-20T15:09:43.286Z,20.20
2022-12-20T15:11:45.385Z,20.20
2022-12-20T15:13:47.284Z,20.20
2022-12-20T15:15:48.974Z,20.20
2022-12-20T15:17:50.623Z,20.20
2022-12-20T15:19:52.206Z,20.20
2022-12-20T15:21:53.772Z,20.30
2022-12-20T15:23:56.359Z,20.30
2022-12-20T15:25:58.011Z,20.30
2022-12-20T15:27:59.608Z,20.30
2022-12-20T15:30:01.157Z,20.30
2022-12-20T15:32:32.585Z,20.30
2022-12-20T15:34:35.331Z,20.30
2022-12-20T15:36:38.327Z,20.30
2022-12-20T15:39:03.886Z,20.40
2022-12-20T15:41:05.503Z,20.40
2022-12-20T15:43:10.070Z,20.40
2022-12-20T15:45:14.552Z,20.40
2022-12-20T15:47:16.298Z,20.40
2022-12-20T15:49:19.558Z,20.40
2022-12-20T15:51:28.679Z,20.40
2022-12-20T15:53:34.023Z,20.40
2022-12-20T15:55:39.708Z,20.40
2022-12-20T15:57:41.826Z,20.40
2022-12-20T16:00:00.942Z,20.40
2022-12-20T16:02:03.226Z,20.40
2022-12-20T16:04:05.433Z,20.40
2022-12-20T16:06:08.887Z,20.50
2022-12-20T16:08:10.640Z,20.50
2022-12-20T16:10:14.208Z,20.50
2022-12-20T16:12:17.635Z,20.50
2022-12-20T16:14:23.602Z,20.50
2022-12-20T16:16:27.158Z,20.50
2022-12-20T16:18:34.327Z,20.50
2022-12-20T16:20:36.219Z,20.50
2022-12-20T16:22:37.771Z,20.50
2022-12-20T16:24:39.345Z,20.60
2022-12-20T16:26:40.880Z,20.60
2022-12-20T16:28:42.944Z,20.60
2022-12-20T16:30:50.918Z,20.60
2022-12-20T16:32:54.676Z,20.60
2022-12-20T16:34:56.317Z,20.60
2022-12-20T16:36:57.829Z,20.60
2022-12-20T16:38:59.650Z,20.70
2022-12-20T16:41:10.589Z,20.70
2022-12-20T16:43:15.996Z,20.70
2022-12-20T16:45:19.525Z,20.70
2022-12-20T16:47:21.658Z,20.70
2022-12-20T16:49:23.250Z,20.70
2022-12-20T16:51:26.251Z,20.70
2022-12-20T16:53:34.460Z,20.70
2022-12-20T16:55:44.207Z,20.70
2022-12-20T16:57:45.731Z,20.70
2022-12-20T16:59:47.296Z,20.70
2022-12-20T17:01:49.578Z,20.70
2022-12-20T17:03:51.494Z,20.70
2022-12-20T17:05:53.175Z,20.80
2022-12-20T17:07:55.121Z,20.80
2022-12-20T17:09:57.224Z,20.80
2022-12-20T17:11:58.828Z,20.80
2022-12-20T17:14:00.556Z,20.80
2022-12-20T17:16:02.198Z,20.80
2022-12-20T17:18:03.873Z,20.90
2022-12-20T17:20:05.844Z,20.90
2022-12-20T17:22:23.218Z,20.90
2022-12-20T17:24:24.959Z,20.90
2022-12-20T17:26:27.459Z,20.90
2022-12-20T17:28:29.611Z,20.90
2022-12-20T17:30:31.188Z,20.90
2022-12-20T17:32:32.778Z,20.90
2022-12-20T17:34:35.292Z,20.90
2022-12-20T17:36:38.249Z,20.90
2022-12-20T17:38:39.889Z,20.90
2022-12-20T17:40:41.417Z,20.90
2022-12-20T17:42:43.039Z,20.90
2022-12-20T17:44:46.005Z,20.90
2022-12-20T17:46:47.992Z,20.90
2022-12-20T17:48:49.772Z,20.90
2022-12-20T17:50:51.338Z,20.90
2022-12-20T17:52:54.370Z,20.90
2022-12-20T17:54:55.973Z,20.90
2022-12-20T17:56:57.656Z,20.90
2022-12-20T17:58:59.822Z,20.90
2022-12-20T18:01:02.183Z,20.90
2022-12-20T18:03:03.935Z,20.90
2022-12-20T18:05:05.702Z,20.90
2022-12-20T18:07:08.221Z,20.90
2022-12-20T18:09:16.618Z,20.90
2022-12-20T18:11:18.827Z,20.90
2022-12-20T18:13:20.386Z,20.90
2022-12-20T18:15:21.956Z,20.90
2022-12-20T18:17:23.500Z,20.90
2022-12-20T18:19:25.180Z,20.90
2022-12-20T18:21:27.123Z,20.90
2022-12-20T18:23:28.657Z,20.90
2022-12-20T18:25:30.550Z,20.90
2022-12-20T18:27:32.174Z,20.90
2022-12-20T18:29:33.740Z,20.90
2022-12-20T18:31:35.479Z,20.90
2022-12-20T18:33:37.448Z,20.90
2022-12-20T18:35:39.013Z,20.90
2022-12-20T18:37:40.611Z,20.90
2022-12-20T18:39:42.193Z,20.90
2022-12-20T18:41:44.544Z,20.90
2022-12-20T18:43:46.121Z,20.90
2022-12-20T18:45:47.724Z,20.90
2022-12-20T18:47:49.333Z,20.90
2022-12-20T18:49:50.912Z,20.90
2022-12-20T18:51:52.550Z,20.90
2022-12-20T18:53:55.172Z,20.90
2022-12-20T18:55:56.852Z,20.80
2022-12-20T18:57:58.410Z,20.90
2022-12-20T19:00:00.109Z,20.90
2022-12-20T19:02:02.159Z,20.90
2022-12-20T19:04:04.668Z,20.90
2022-12-20T19:06:06.436Z,20.80
2022-12-20T19:08:08.035Z,20.80
2022-12-20T19:10:09.698Z,20.90
2022-12-20T19:12:11.259Z,20.90
2022-12-20T19:14:12.902Z,20.90
2022-12-20T19:16:22.095Z,20.90
2022-12-20T19:18:23.673Z,20.90
2022-12-20T19:20:25.327Z,20.90
2022-12-20T19:22:26.983Z,20.90
2022-12-20T19:24:28.553Z,20.90
2022-12-20T19:26:30.389Z,20.90
2022-12-20T19:28:32.276Z,20.90
2022-12-20T19:30:33.857Z,20.90
2022-12-20T19:32:35.504Z,20.90
2022-12-20T19:34:37.068Z,20.90
2022-12-20T19:36:39.946Z,20.90
2022-12-20T19:38:45.453Z,20.90
2022-12-20T19:40:53.805Z,20.90
2022-12-20T19:42:55.636Z,20.90
2022-12-20T19:44:57.147Z,20.90
2022-12-20T19:47:06.423Z,20.90
2022-12-20T19:49:08.237Z,20.90
2022-12-20T19:51:11.608Z,20.90
2022-12-20T19:53:13.150Z,20.90
2022-12-20T19:55:14.748Z,20.90
2022-12-20T19:57:16.555Z,20.90
2022-12-20T19:59:18.178Z,20.90
2022-12-20T20:01:21.345Z,20.90
2022-12-20T20:03:23.133Z,21.00
2022-12-20T20:05:24.804Z,21.00
2022-12-20T20:07:26.455Z,20.90
2022-12-20T20:09:28.088Z,21.00
2022-12-20T20:11:29.601Z,21.00
2022-12-20T20:13:31.731Z,20.90
2022-12-20T20:15:33.305Z,21.00
2022-12-20T20:17:35.753Z,20.90
2022-12-20T20:19:37.964Z,21.00
2022-12-20T20:21:39.552Z,21.00
2022-12-20T20:23:41.486Z,20.90
2022-12-20T20:25:47.477Z,20.90
2022-12-20T20:27:48.985Z,20.90
2022-12-20T20:29:51.125Z,20.90
2022-12-20T20:31:52.756Z,20.90
2022-12-20T20:33:54.660Z,20.90
2022-12-20T20:35:57.186Z,20.90
2022-12-20T20:37:58.720Z,20.90
2022-12-20T20:40:00.413Z,20.90
2022-12-20T20:42:02.108Z,20.90
2022-12-20T20:44:03.774Z,20.90
2022-12-20T20:46:06.552Z,20.90
2022-12-20T20:48:08.554Z,20.90
2022-12-20T20:50:10.685Z,20.90
2022-12-20T20:52:12.221Z,20.90
2022-12-20T20:54:13.871Z,20.90
2022-12-20T20:56:15.600Z,20.90
2022-12-20T20:58:17.111Z,20.90
2022-12-20T21:00:19.157Z,20.90
2022-12-20T21:02:22.034Z,20.90
2022-12-20T21:04:23.684Z,20.90
2022-12-20T21:06:42.042Z,20.90
2022-12-20T21:08:43.924Z,20.90
2022-12-20T21:10:45.582Z,20.80
2022-12-20T21:12:47.231Z,20.80
2022-12-20T21:15:20.805Z,20.80
2022-12-20T21:17:10.330Z,20.90
2022-12-20T21:19:11.936Z,20.90
2022-12-20T21:21:13.452Z,20.90
2022-12-20T21:23:14.959Z,20.90
2022-12-20T21:25:17.268Z,20.80
2022-12-20T21:27:19.905Z,20.80
2022-12-20T21:29:21.796Z,20.80
2022-12-20T21:31:23.526Z,20.80
2022-12-20T21:33:25.224Z,20.80
2022-12-20T21:35:27.088Z,20.80
2022-12-20T21:37:31.682Z,20.80
2022-12-20T21:39:33.408Z,20.80
2022-12-20T21:41:34.921Z,20.80
2022-12-20T21:43:36.729Z,20.80
2022-12-20T21:45:38.333Z,20.80
2022-12-20T21:47:39.976Z,20.80
2022-12-20T21:49:41.681Z,20.70
2022-12-20T21:51:43.239Z,20.70
2022-12-20T21:53:49.293Z,20.70
2022-12-20T21:55:53.340Z,20.70
2022-12-20T21:57:54.876Z,20.70
2022-12-20T21:59:56.530Z,20.70
2022-12-20T22:01:58.251Z,20.70
2022-12-20T22:04:03.017Z,20.70
2022-12-20T22:06:04.835Z,20.70
2022-12-20T22:08:06.408Z,20.70
2022-12-20T22:10:08.299Z,20.70
2022-12-20T22:12:09.826Z,20.70
2022-12-20T22:14:12.530Z,20.70
2022-12-20T22:16:15.577Z,20.60
2022-12-20T22:18:17.226Z,20.60
2022-12-20T22:20:18.788Z,20.60
2022-12-20T22:22:21.057Z,20.60
2022-12-20T22:24:22.704Z,20.60
2022-12-20T22:26:25.890Z,20.60
2022-12-20T22:28:28.013Z,20.60
2022-12-20T22:30:29.901Z,20.60
2022-12-20T22:32:31.818Z,20.60
2022-12-20T22:34:33.685Z,20.60
2022-12-20T22:36:35.696Z,20.60
2022-12-20T22:38:37.385Z,20.50
2022-12-20T22:40:39.102Z,20.60
2022-12-20T22:42:41.019Z,20.50
2022-12-20T22:44:42.597Z,20.50
2022-12-20T22:46:44.475Z,20.60
2022-12-20T22:48:48.996Z,20.50
2022-12-20T22:50:58.032Z,20.50
2022-12-20T22:52:59.740Z,20.50
2022-12-20T22:55:01.549Z,20.50
2022-12-20T22:57:03.294Z,20.50
2022-12-20T22:59:05.082Z,20.50
2022-12-20T23:01:08.527Z,20.50
2022-12-20T23:03:10.483Z,20.50
2022-12-20T23:05:12.388Z,20.50
2022-12-20T23:07:14.005Z,20.50
2022-12-20T23:09:15.576Z,20.50
2022-12-20T23:11:40.527Z,20.50
2022-12-20T23:14:01.137Z,20.50
2022-12-20T23:16:02.773Z,20.40
2022-12-20T23:18:04.406Z,20.40
2022-12-20T23:20:24.644Z,20.40
2022-12-20T23:22:38.240Z,20.40
2022-12-20T23:24:39.796Z,20.40
2022-12-20T23:26:41.831Z,20.40
2022-12-20T23:28:43.733Z,20.40
2022-12-20T23:30:45.256Z,20.40
2022-12-20T23:32:47.485Z,20.40
2022-12-20T23:34:49.058Z,20.40
2022-12-20T23:36:50.575Z,20.40
2022-12-20T23:38:52.156Z,20.40
2022-12-20T23:40:53.739Z,20.40
2022-12-20T23:42:55.375Z,20.40
2022-12-20T23:44:56.953Z,20.40
2022-12-20T23:46:58.502Z,20.40
2022-12-20T23:49:00.110Z,20.30
2022-12-20T23:51:01.708Z,20.40
2022-12-20T23:53:03.293Z,20.40
2022-12-20T23:55:05.669Z,20.30
2022-12-20T23:57:07.169Z,20.30
2022-12-20T23:59:08.708Z,20.30
